createdAt,value
2023-11-13T00:05:12.126Z,19.7
2023-11-13T00:11:04.320Z,19.7
2023-11-13T00:16:56.070Z,19.6
2023-11-13T00:22:48.649Z,19.7
2023-11-13T00:28:40.092Z,19.6
2023-11-13T00:34:32.643Z,19.6
2023-11-13T00:40:24.567Z,19.6
2023-11-13T00:46:19.942Z,19.6
2023-11-13T00:52:12.098Z,19.6
2023-11-13T00:58:03.934Z,19.6
2023-11-13T01:03:57.048Z,19.6
2023-11-13T01:09:49.420Z,19.6
2023-11-13T01:15:41.224Z,19.6
2023-11-13T01:21:32.420Z,19.6
2023-11-13T01:27:27.931Z,19.6
2023-11-13T01:33:20.230Z,19.6
2023-11-13T01:39:11.693Z,19.6
2023-11-13T01:45:03.608Z,19.6
2023-11-13T01:50:56.066Z,19.6
2023-11-13T01:56:47.989Z,19.6
2023-11-13T02:02:39.796Z,19.6
2023-11-13T02:08:31.841Z,19.6
2023-11-13T02:14:23.634Z,19.6
2023-11-13T02:25:52.178Z,19.6
2023-11-13T02:31:43.817Z,19.6
2023-11-13T02:37:35.916Z,19.6
2023-11-13T02:43:27.107Z,19.6
2023-11-13T02:49:18.724Z,19.6
2023-11-13T02:55:11.487Z,19.6
2023-11-13T03:01:03.611Z,19.6
2023-11-13T03:06:55.606Z,19.6
2023-11-13T03:12:47.198Z,19.6
2023-11-13T03:18:23.493Z,19.6
2023-11-13T03:29:51.731Z,19.6
2023-11-13T03:35:44.165Z,19.6
2023-11-13T03:41:20.606Z,19.6
2023-11-13T03:47:12.816Z,19.6
2023-11-13T03:53:04.581Z,19.6
2023-11-13T03:58:57.213Z,19.6
2023-11-13T04:04:50.112Z,19.6
2023-11-13T04:10:41.469Z,19.6
2023-11-13T04:16:33.030Z,19.6
2023-11-13T04:22:09.408Z,19.6
2023-11-13T04:27:46.329Z,19.6
2023-11-13T04:33:26.347Z,19.6
2023-11-13T04:39:18.806Z,19.5
2023-11-13T04:45:10.688Z,19.5
2023-11-13T04:51:02.495Z,19.5
2023-11-13T04:56:54.162Z,19.5
2023-11-13T05:02:50.269Z,19.5
2023-11-13T05:08:42.756Z,19.5
2023-11-13T05:14:34.794Z,19.5
2023-11-13T05:20:29.409Z,19.5
2023-11-13T05:26:21.396Z,19.5
2023-11-13T05:32:14.001Z,19.5
2023-11-13T05:38:05.932Z,19.5
2023-11-13T05:43:57.396Z,19.5
2023-11-13T05:49:52.231Z,19.6
2023-11-13T05:55:44.949Z,19.5
2023-11-13T06:01:37.269Z,19.5
2023-11-13T06:07:30.022Z,19.5
2023-11-13T06:13:24.738Z,19.5
2023-11-13T06:19:16.200Z,19.5
2023-11-13T06:24:52.083Z,19.6
2023-11-13T06:30:47.625Z,19.5
2023-11-13T06:36:41.952Z,19.6
2023-11-13T06:42:18.892Z,19.6
2023-11-13T06:48:11.944Z,19.6
2023-11-13T06:54:04.083Z,19.6
2023-11-13T06:59:55.984Z,19.6
2023-11-13T07:05:49.513Z,19.6
2023-11-13T07:11:24.769Z,19.6
2023-11-13T07:17:20.805Z,19.6
2023-11-13T07:23:13.240Z,19.6
2023-11-13T07:29:05.224Z,19.6
2023-11-13T07:34:57.942Z,19.5
2023-11-13T07:40:50.616Z,19.5
2023-11-13T07:46:43.484Z,19.5
2023-11-13T07:52:53.003Z,19.5
2023-11-13T07:58:46.692Z,19.5
2023-11-13T08:04:38.429Z,19.5
2023-11-13T08:10:39.238Z,19.5
2023-11-13T08:16:31.882Z,19.5
2023-11-13T08:22:22.848Z,19.5
2023-11-13T08:28:16.565Z,19.6
2023-11-13T08:34:11.613Z,19.6
2023-11-13T08:40:03.227Z,19.6
2023-11-13T08:46:06.627Z,19.6
2023-11-13T08:52:03.798Z,19.6
2023-11-13T08:57:55.391Z,19.6
2023-11-13T09:03:34.147Z,19.6
2023-11-13T09:09:29.700Z,19.6
2023-11-13T09:15:21.911Z,19.6
2023-11-13T09:20:58.717Z,19.7
2023-11-13T09:26:51.258Z,19.7
2023-11-13T09:32:42.474Z,19.7
2023-11-13T09:38:34.444Z,19.7
2023-11-13T09:44:27.392Z,19.7
2023-11-13T09:50:32.351Z,19.7
2023-11-13T09:56:33.294Z,19.7
2023-11-13T10:02:26.785Z,19.7
2023-11-13T10:08:22.802Z,19.8
2023-11-13T10:13:59.162Z,19.8
2023-11-13T10:19:55.800Z,19.8
2023-11-13T10:25:47.219Z,19.8
2023-11-13T10:31:27.765Z,19.8
2023-11-13T10:37:23.485Z,19.8
2023-11-13T10:43:21.008Z,19.8
2023-11-13T10:49:16.571Z,19.8
2023-11-13T10:54:53.871Z,19.8
2023-11-13T11:00:48.390Z,19.9
2023-11-13T11:06:44.728Z,19.9
2023-11-13T11:12:42.425Z,19.8
2023-11-13T11:18:40.264Z,19.8
2023-11-13T11:24:33.245Z,19.6
2023-11-13T11:30:37.502Z,19.6
2023-11-13T11:36:14.598Z,19.5
2023-11-13T11:41:52.948Z,19.4
2023-11-13T11:47:58.196Z,19.3
2023-11-13T11:53:54.460Z,19.3
2023-11-13T11:59:45.192Z,19.3
2023-11-13T12:05:40.618Z,19.3
2023-11-13T12:11:32.595Z,19.4
2023-11-13T12:17:09.036Z,19.4
2023-11-13T12:23:15.851Z,19.5
2023-11-13T12:29:06.426Z,19.6
2023-11-13T12:34:59.262Z,19.6
2023-11-13T12:40:36.489Z,19.8
2023-11-13T12:46:32.327Z,19.8
2023-11-13T12:52:26.751Z,19.8
2023-11-13T12:58:19.425Z,19.9
2023-11-13T13:04:11.724Z,19.9
2023-11-13T13:10:08.269Z,20
2023-11-13T13:16:17.957Z,20
2023-11-13T13:22:10.886Z,20.1
2023-11-13T13:28:04.434Z,20.1
2023-11-13T13:33:58.310Z,20.1
2023-11-13T13:39:49.499Z,20.2
2023-11-13T13:45:40.947Z,20.2
2023-11-13T13:51:34.043Z,20.3
2023-11-13T13:57:32.078Z,20.3
2023-11-13T14:03:36.255Z,20.3
2023-11-13T14:09:29.139Z,20.3
2023-11-13T14:15:29.183Z,20.3
2023-11-13T14:21:35.988Z,20.4
2023-11-13T14:27:32.585Z,20.4
2023-11-13T14:32:53.043Z,20.4
2023-11-13T14:38:45.655Z,20.4
2023-11-13T14:44:24.470Z,20.4
2023-11-13T14:50:21.596Z,20.4
2023-11-13T14:56:16.686Z,20.4
2023-11-13T15:02:10.304Z,20.4
2023-11-13T15:08:03.672Z,20.4
2023-11-13T15:13:54.455Z,20.4
2023-11-13T15:19:56.090Z,20.4
2023-11-13T15:26:28.181Z,20.4
2023-11-13T15:32:06.613Z,20.4
2023-11-13T15:38:07.491Z,20.4
2023-11-13T15:43:59.617Z,20.4
2023-11-13T15:49:36.598Z,20.4
2023-11-13T15:55:13.797Z,20.4
2023-11-13T16:01:05.988Z,20.4
2023-11-13T16:07:02.482Z,20.4
2023-11-13T16:12:55.278Z,20.4
2023-11-13T16:18:48.881Z,20.4
2023-11-13T16:24:28.152Z,20.4
2023-11-13T16:30:20.296Z,20.3
2023-11-13T16:36:12.056Z,20.3
2023-11-13T16:41:47.344Z,20.3
2023-11-13T16:47:40.541Z,20.3
2023-11-13T16:53:34.202Z,20.3
2023-11-13T16:59:30.046Z,20.3
2023-11-13T17:05:23.456Z,20.3
2023-11-13T17:11:16.963Z,20.3
2023-11-13T17:16:53.818Z,20.3
2023-11-13T17:22:49.871Z,20.3
2023-11-13T17:28:29.214Z,20.3
2023-11-13T17:34:23.623Z,20.3
2023-11-13T17:40:15.841Z,20.3
2023-11-13T17:51:28.688Z,20.3
2023-11-13T17:57:20.337Z,20.4
2023-11-13T18:03:16.010Z,20.3
2023-11-13T18:09:10.825Z,20.4
2023-11-13T18:14:47.509Z,20.4
2023-11-13T18:20:38.607Z,20.3
2023-11-13T18:26:17.370Z,20.3
2023-11-13T18:32:02.162Z,20.3
2023-11-13T18:37:54.033Z,20.3
2023-11-13T18:43:49.427Z,20.3
2023-11-13T18:49:42.163Z,20.3
2023-11-13T18:55:32.829Z,20.3
2023-11-13T19:01:24.831Z,20.3
2023-11-13T19:07:04.556Z,20.3
2023-11-13T19:13:01.702Z,20.3
2023-11-13T19:18:53.944Z,20.3
2023-11-13T19:24:46.472Z,20.3
2023-11-13T19:30:07.570Z,20.3
2023-11-13T19:35:43.945Z,20.3
2023-11-13T19:41:20.711Z,20.3
2023-11-13T19:46:52.026Z,20.3
2023-11-13T19:52:54.514Z,20.3
2023-11-13T19:58:32.450Z,20.3
2023-11-13T20:03:41.919Z,20.3
2023-11-13T20:09:03.626Z,20.3
2023-11-13T20:14:40.920Z,20.3
2023-11-13T20:20:45.099Z,20.2
2023-11-13T20:26:07.889Z,20.2
2023-11-13T20:32:06.947Z,20.2
2023-11-13T20:37:46.540Z,20.2
2023-11-13T20:49:00.779Z,20.2
2023-11-13T20:54:35.923Z,20.2
2023-11-13T20:59:56.818Z,20.2
2023-11-13T21:05:20.990Z,20.2
2023-11-13T21:11:25.760Z,20.2
2023-11-13T21:17:17.997Z,20.2
2023-11-13T21:22:40.372Z,20.2
2023-11-13T21:28:31.890Z,20.2
2023-11-13T21:34:09.349Z,20.2
2023-11-13T21:39:45.767Z,20.2
2023-11-13T21:45:37.750Z,20.2
2023-11-13T21:50:58.870Z,20.2
2023-11-13T21:56:51.193Z,20.2
2023-11-13T22:02:29.688Z,20.2
2023-11-13T22:07:50.955Z,20.1
2023-11-13T22:13:43.191Z,20.1
2023-11-13T22:19:20.648Z,20.1
2023-11-13T22:24:56.895Z,20.1
2023-11-13T22:30:33.633Z,20.1
2023-11-13T22:36:10.281Z,20.1
2023-11-13T22:41:46.082Z,20.1
2023-11-13T22:47:23.458Z,20.1
2023-11-13T22:53:00.370Z,20.1
2023-11-13T22:58:21.251Z,20.1
2023-11-13T23:03:59.175Z,20.1
2023-11-13T23:09:35.679Z,20.1
2023-11-13T23:15:11.652Z,20.1
2023-11-13T23:20:48.997Z,20.1
2023-11-13T23:26:49.397Z,20.1
2023-11-13T23:32:25.813Z,20.1
2023-11-13T23:38:02.798Z,20.1
2023-11-13T23:43:39.625Z,20.1
2023-11-13T23:49:15.340Z,20
2023-11-13T23:54:51.735Z,20
